createdAt,value
2022-08-26T00:01:55.267Z,24.00
2022-08-26T00:04:25.494Z,23.90
2022-08-26T00:06:53.939Z,23.80
2022-08-26T00:09:21.397Z,23.80
2022-08-26T00:11:48.795Z,23.80
2022-08-26T00:14:16.667Z,23.70
2022-08-26T00:16:47.247Z,23.70
2022-08-26T00:19:17.047Z,23.70
2022-08-26T00:21:44.287Z,23.70
2022-08-26T00:24:11.334Z,23.70
2022-08-26T00:26:41.459Z,23.60
2022-08-26T00:29:09.419Z,23.60
2022-08-26T00:31:36.731Z,23.50
2022-08-26T00:34:04.621Z,23.40
2022-08-26T00:36:32.328Z,23.40
2022-08-26T00:38:59.446Z,23.40
2022-08-26T00:41:26.893Z,23.40
2022-08-26T00:43:54.518Z,23.30
2022-08-26T00:46:29.804Z,23.30
2022-08-26T00:49:12.003Z,23.30
2022-08-26T00:51:48.516Z,23.40
2022-08-26T00:54:17.412Z,23.30
2022-08-26T00:57:00.894Z,23.30
2022-08-26T00:59:33.040Z,23.20
2022-08-26T01:02:02.791Z,23.20
2022-08-26T01:04:31.835Z,23.20
2022-08-26T01:06:59.084Z,23.20
2022-08-26T01:09:27.152Z,23.10
2022-08-26T01:11:57.687Z,23.10
2022-08-26T01:14:26.927Z,23.00
2022-08-26T01:16:54.004Z,23.00
2022-08-26T01:19:36.571Z,23.00
2022-08-26T01:22:28.783Z,22.90
2022-08-26T01:24:58.777Z,22.90
2022-08-26T01:27:32.413Z,22.90
2022-08-26T01:30:01.899Z,22.90
2022-08-26T01:32:31.844Z,22.90
2022-08-26T01:34:59.695Z,22.90
2022-08-26T01:37:32.748Z,22.90
2022-08-26T01:40:00.227Z,22.90
2022-08-26T01:42:28.513Z,22.90
2022-08-26T01:45:05.832Z,22.90
2022-08-26T01:47:35.643Z,22.90
2022-08-26T01:50:10.696Z,22.80
2022-08-26T01:52:42.702Z,22.70
2022-08-26T01:55:12.736Z,22.70
2022-08-26T01:57:56.220Z,22.60
2022-08-26T02:00:24.727Z,22.60
2022-08-26T02:03:13.787Z,22.60
2022-08-26T02:05:41.276Z,22.60
2022-08-26T02:08:11.301Z,22.60
2022-08-26T02:10:38.401Z,22.60
2022-08-26T02:13:10.366Z,22.50
2022-08-26T02:15:41.210Z,22.50
2022-08-26T02:18:09.846Z,22.50
2022-08-26T02:20:41.582Z,22.50
2022-08-26T02:23:08.774Z,22.40
2022-08-26T02:25:54.884Z,22.40
2022-08-26T02:28:22.081Z,22.40
2022-08-26T02:30:55.543Z,22.30
2022-08-26T02:33:22.930Z,22.30
2022-08-26T02:35:49.986Z,22.30
2022-08-26T02:38:17.848Z,22.30
2022-08-26T02:40:44.973Z,22.20
2022-08-26T02:43:12.703Z,22.10
2022-08-26T02:45:40.667Z,22.10
2022-08-26T02:48:18.805Z,22.10
2022-08-26T02:50:46.476Z,22.10
2022-08-26T02:53:14.071Z,22.10
2022-08-26T02:55:42.865Z,22.10
2022-08-26T02:58:11.340Z,22.10
2022-08-26T03:00:39.209Z,22.00
2022-08-26T03:03:20.807Z,22.00
2022-08-26T03:05:51.003Z,22.00
2022-08-26T03:08:18.179Z,22.00
2022-08-26T03:10:46.616Z,22.00
2022-08-26T03:13:15.809Z,21.90
2022-08-26T03:15:42.803Z,21.90
2022-08-26T03:18:10.366Z,21.90
2022-08-26T03:20:37.378Z,21.90
2022-08-26T03:23:04.623Z,21.90
2022-08-26T03:25:31.649Z,21.90
2022-08-26T03:27:59.569Z,21.90
2022-08-26T03:30:44.996Z,21.90
2022-08-26T03:33:14.336Z,21.90
2022-08-26T03:35:43.965Z,21.80
2022-08-26T03:38:11.792Z,21.80
2022-08-26T03:40:39.897Z,21.80
2022-08-26T03:43:09.491Z,21.80
2022-08-26T03:45:37.367Z,21.80
2022-08-26T03:48:05.631Z,21.80
2022-08-26T03:50:34.282Z,21.70
2022-08-26T03:53:03.976Z,21.60
2022-08-26T03:55:33.032Z,21.70
2022-08-26T03:58:00.893Z,21.60
2022-08-26T04:00:27.996Z,21.60
2022-08-26T04:02:55.080Z,21.60
2022-08-26T04:05:23.850Z,21.60
2022-08-26T04:07:52.011Z,21.50
2022-08-26T04:10:28.416Z,21.40
2022-08-26T04:12:55.900Z,21.50
2022-08-26T04:15:27.086Z,21.40
2022-08-26T04:17:56.069Z,21.40
2022-08-26T04:20:24.676Z,21.40
2022-08-26T04:22:52.539Z,21.40
2022-08-26T04:25:20.598Z,21.30
2022-08-26T04:27:48.319Z,21.30
2022-08-26T04:30:16.644Z,21.30
2022-08-26T04:32:44.161Z,21.30
2022-08-26T04:35:11.220Z,21.20
2022-08-26T04:37:38.249Z,21.20
2022-08-26T04:40:06.654Z,21.20
2022-08-26T04:42:34.324Z,21.20
2022-08-26T04:45:01.563Z,21.20
2022-08-26T04:47:33.017Z,21.10
2022-08-26T04:50:00.199Z,21.10
2022-08-26T04:52:29.120Z,21.10
2022-08-26T04:54:58.356Z,21.10
2022-08-26T04:57:25.433Z,21.10
2022-08-26T04:59:53.231Z,21.10
2022-08-26T05:02:20.770Z,21.20
2022-08-26T05:04:47.759Z,21.20
2022-08-26T05:07:18.898Z,21.20
2022-08-26T05:09:46.295Z,21.20
2022-08-26T05:12:13.296Z,21.20
2022-08-26T05:14:41.566Z,21.20
2022-08-26T05:17:08.741Z,21.20
2022-08-26T05:19:37.223Z,21.20
2022-08-26T05:22:09.821Z,21.20
2022-08-26T05:24:40.962Z,21.20
2022-08-26T05:27:11.617Z,21.20
2022-08-26T05:29:39.446Z,21.20
2022-08-26T05:32:07.073Z,21.20
2022-08-26T05:34:34.294Z,21.20
2022-08-26T05:37:01.975Z,21.20
2022-08-26T05:39:29.395Z,21.20
2022-08-26T05:41:56.373Z,21.30
2022-08-26T05:44:23.968Z,21.30
2022-08-26T05:46:51.883Z,21.20
2022-08-26T05:49:19.041Z,21.30
2022-08-26T05:51:47.985Z,21.40
2022-08-26T05:54:21.818Z,21.40
2022-08-26T05:56:50.404Z,21.50
2022-08-26T05:59:21.277Z,21.60
2022-08-26T06:01:52.257Z,21.60
2022-08-26T06:04:20.038Z,21.70
2022-08-26T06:06:47.418Z,21.70
2022-08-26T06:09:14.585Z,21.80
2022-08-26T06:11:44.649Z,21.90
2022-08-26T06:14:11.854Z,21.90
2022-08-26T06:16:41.703Z,22.10
2022-08-26T06:19:10.398Z,22.10
2022-08-26T06:21:39.417Z,22.20
2022-08-26T06:24:28.323Z,22.20
2022-08-26T06:26:57.817Z,22.30
2022-08-26T06:29:26.230Z,22.40
2022-08-26T06:31:56.129Z,22.50
2022-08-26T06:34:29.844Z,22.50
2022-08-26T06:36:59.833Z,22.60
2022-08-26T06:39:30.819Z,22.70
2022-08-26T06:41:59.109Z,22.70
2022-08-26T06:44:27.339Z,22.80
2022-08-26T06:46:54.694Z,22.90
2022-08-26T06:49:25.739Z,23.00
2022-08-26T06:51:58.596Z,23.00
2022-08-26T06:54:26.787Z,23.10
2022-08-26T06:56:53.956Z,23.20
2022-08-26T06:59:21.936Z,23.30
2022-08-26T07:01:49.622Z,23.40
2022-08-26T07:04:20.321Z,23.50
2022-08-26T07:06:52.755Z,23.60
2022-08-26T07:09:24.760Z,23.70
2022-08-26T07:11:53.304Z,23.80
2022-08-26T07:14:21.852Z,23.90
2022-08-26T07:16:50.395Z,24.00
2022-08-26T07:19:30.281Z,24.10
2022-08-26T07:22:03.519Z,24.20
2022-08-26T07:24:36.105Z,24.40
2022-08-26T07:27:06.401Z,24.50
2022-08-26T07:29:34.373Z,24.80
2022-08-26T07:32:01.658Z,25.00
2022-08-26T07:34:29.286Z,25.20
2022-08-26T07:36:57.166Z,25.40
2022-08-26T07:39:26.885Z,25.50
2022-08-26T07:41:54.581Z,25.60
2022-08-26T07:44:21.590Z,25.70
2022-08-26T07:46:52.449Z,25.60
2022-08-26T07:49:22.719Z,25.60
2022-08-26T07:51:50.688Z,25.60
2022-08-26T07:54:17.944Z,25.70
2022-08-26T07:56:47.051Z,25.70
2022-08-26T07:59:15.293Z,25.70
2022-08-26T08:01:44.719Z,25.70
2022-08-26T08:04:17.953Z,25.70
2022-08-26T08:06:45.982Z,25.70
2022-08-26T08:09:15.652Z,25.90
2022-08-26T08:11:45.003Z,25.90
2022-08-26T08:14:12.900Z,25.90
2022-08-26T08:16:45.818Z,25.90
2022-08-26T08:19:13.820Z,26.00
2022-08-26T08:21:42.087Z,26.10
2022-08-26T08:24:11.323Z,26.20
2022-08-26T08:26:38.863Z,26.20
2022-08-26T08:29:08.427Z,26.30
2022-08-26T08:31:56.525Z,26.50
2022-08-26T08:34:23.979Z,26.60
2022-08-26T08:36:53.532Z,26.80
2022-08-26T08:39:22.312Z,27.00
2022-08-26T08:42:14.116Z,27.20
2022-08-26T08:44:51.930Z,27.20
2022-08-26T08:47:54.634Z,27.40
2022-08-26T08:50:24.556Z,27.60
2022-08-26T08:53:03.510Z,27.80
2022-08-26T08:55:47.193Z,27.90
2022-08-26T08:58:21.511Z,28.00
2022-08-26T09:01:29.457Z,28.20
2022-08-26T09:04:08.497Z,28.40
2022-08-26T09:06:35.738Z,28.50
2022-08-26T09:09:04.202Z,28.70
2022-08-26T09:11:31.275Z,28.70
2022-08-26T09:14:00.314Z,28.90
2022-08-26T09:17:02.605Z,29.00
2022-08-26T09:19:42.085Z,29.00
2022-08-26T09:22:09.919Z,29.00
2022-08-26T09:24:41.833Z,29.20
2022-08-26T09:27:11.622Z,29.10
2022-08-26T09:29:43.693Z,29.30
2022-08-26T09:32:24.482Z,29.40
2022-08-26T09:34:54.782Z,29.60
2022-08-26T09:37:42.826Z,29.70
2022-08-26T09:40:28.439Z,29.90
2022-08-26T09:43:22.720Z,30.30
2022-08-26T09:46:10.346Z,30.60
2022-08-26T09:48:40.593Z,31.00
2022-08-26T09:51:30.227Z,31.30
2022-08-26T09:54:00.614Z,31.70
2022-08-26T09:56:36.838Z,32.00
2022-08-26T09:59:06.511Z,32.30
2022-08-26T10:01:43.546Z,33.00
2022-08-26T10:04:20.434Z,34.00
2022-08-26T10:07:06.189Z,35.10
2022-08-26T10:09:43.217Z,36.40
2022-08-26T10:12:18.893Z,37.40
2022-08-26T10:14:54.214Z,38.20
2022-08-26T10:17:43.386Z,38.70
2022-08-26T10:20:25.899Z,38.70
2022-08-26T10:23:01.584Z,39.30
2022-08-26T10:25:40.965Z,40.50
2022-08-26T10:28:32.016Z,40.40
2022-08-26T10:31:12.863Z,40.80
2022-08-26T10:33:40.201Z,41.80
2022-08-26T10:36:42.909Z,42.50
2022-08-26T10:39:44.742Z,42.00
2022-08-26T10:42:29.474Z,41.60
2022-08-26T10:45:03.476Z,41.40
2022-08-26T10:47:41.561Z,40.70
2022-08-26T10:50:09.101Z,40.10
2022-08-26T10:52:58.118Z,41.10
2022-08-26T10:55:38.885Z,42.40
2022-08-26T10:58:36.111Z,44.20
2022-08-26T11:01:40.619Z,45.40
2022-08-26T11:04:35.986Z,44.50
2022-08-26T11:07:30.061Z,42.50
2022-08-26T11:10:01.304Z,40.80
2022-08-26T11:12:37.509Z,39.90
2022-08-26T11:15:24.739Z,39.10
2022-08-26T11:17:51.904Z,38.40
2022-08-26T11:20:42.321Z,37.40
2022-08-26T11:23:24.289Z,36.60
2022-08-26T11:25:57.485Z,36.00
2022-08-26T11:28:51.790Z,36.50
2022-08-26T11:31:19.193Z,37.50
2022-08-26T11:33:59.518Z,38.20
2022-08-26T11:36:33.005Z,39.70
2022-08-26T11:39:12.850Z,41.30
2022-08-26T11:41:44.350Z,43.00
2022-08-26T11:44:16.091Z,44.80
2022-08-26T11:46:53.394Z,43.90
2022-08-26T11:49:21.368Z,42.80
2022-08-26T11:51:48.473Z,41.50
2022-08-26T11:54:18.355Z,40.60
2022-08-26T11:57:07.936Z,40.10
2022-08-26T11:59:40.919Z,40.10
2022-08-26T12:02:16.340Z,42.30
2022-08-26T12:04:48.938Z,44.20
2022-08-26T12:07:18.526Z,46.40
2022-08-26T12:10:00.318Z,48.10
2022-08-26T12:12:36.192Z,49.50
2022-08-26T12:15:06.659Z,50.30
2022-08-26T12:17:33.777Z,51.20
2022-08-26T12:20:00.817Z,51.50
2022-08-26T12:22:34.633Z,51.70
2022-08-26T12:25:10.187Z,51.30
2022-08-26T12:27:45.523Z,48.70
2022-08-26T12:30:23.217Z,45.90
2022-08-26T12:33:15.766Z,44.00
2022-08-26T12:35:52.845Z,42.60
2022-08-26T12:38:22.671Z,41.30
2022-08-26T12:40:50.445Z,40.00
2022-08-26T12:43:43.958Z,39.10
2022-08-26T12:46:24.524Z,37.90
2022-08-26T12:48:51.891Z,36.70
2022-08-26T12:51:28.065Z,34.80
2022-08-26T12:53:55.708Z,33.40
2022-08-26T12:56:32.523Z,32.20
2022-08-26T12:59:09.456Z,31.40
2022-08-26T13:01:43.269Z,31.00
2022-08-26T13:04:33.500Z,30.40
2022-08-26T13:07:24.500Z,29.80
2022-08-26T13:09:54.243Z,29.30
2022-08-26T13:12:33.350Z,29.10
2022-08-26T13:15:01.901Z,29.10
2022-08-26T13:17:30.394Z,29.00
2022-08-26T13:20:03.241Z,28.90
2022-08-26T13:22:30.966Z,28.60
2022-08-26T13:24:58.001Z,28.20
2022-08-26T13:27:27.289Z,27.80
2022-08-26T13:29:54.922Z,27.50
2022-08-26T13:32:26.119Z,27.30
2022-08-26T13:34:56.576Z,27.20
2022-08-26T13:37:34.355Z,27.20
2022-08-26T13:40:01.978Z,27.20
2022-08-26T13:42:29.474Z,27.10
2022-08-26T13:44:58.223Z,26.90
2022-08-26T13:47:26.483Z,27.00
2022-08-26T13:49:55.991Z,26.90
2022-08-26T13:52:30.209Z,27.10
2022-08-26T13:55:00.667Z,27.20
2022-08-26T13:57:30.119Z,27.30
2022-08-26T13:59:59.478Z,27.40
2022-08-26T14:02:27.769Z,27.30
2022-08-26T14:04:55.434Z,27.30
2022-08-26T14:07:22.792Z,27.40
2022-08-26T14:09:49.897Z,27.40
2022-08-26T14:12:17.028Z,27.40
2022-08-26T14:14:43.995Z,27.50
2022-08-26T14:17:14.245Z,27.60
2022-08-26T14:19:45.147Z,27.80
2022-08-26T14:22:13.229Z,27.80
2022-08-26T14:24:40.243Z,27.90
2022-08-26T14:27:07.337Z,27.80
2022-08-26T14:29:34.564Z,27.80
2022-08-26T14:32:06.981Z,28.00
2022-08-26T14:34:34.248Z,28.20
2022-08-26T14:37:07.228Z,28.40
2022-08-26T14:39:35.520Z,28.40
2022-08-26T14:42:02.545Z,28.40
2022-08-26T14:44:32.929Z,28.50
2022-08-26T14:47:02.075Z,28.50
2022-08-26T14:49:31.239Z,28.50
2022-08-26T14:51:58.540Z,28.70
2022-08-26T14:54:26.205Z,28.80
2022-08-26T14:56:59.262Z,28.70
2022-08-26T14:59:30.120Z,28.60
2022-08-26T15:01:57.626Z,28.50
2022-08-26T15:04:25.391Z,28.50
2022-08-26T15:06:54.391Z,28.60
2022-08-26T15:09:22.635Z,28.80
2022-08-26T15:11:50.539Z,29.10
2022-08-26T15:14:19.315Z,29.20
2022-08-26T15:16:48.853Z,29.50
2022-08-26T15:19:16.818Z,29.70
2022-08-26T15:21:45.735Z,29.90
2022-08-26T15:24:14.019Z,30.30
2022-08-26T15:26:41.674Z,30.50
2022-08-26T15:29:08.782Z,30.70
2022-08-26T15:31:36.664Z,30.80
2022-08-26T15:34:07.617Z,30.90
2022-08-26T15:36:37.379Z,31.00
2022-08-26T15:39:06.493Z,31.20
2022-08-26T15:41:34.836Z,31.20
2022-08-26T15:44:03.664Z,31.40
2022-08-26T15:46:31.550Z,31.60
2022-08-26T15:48:58.670Z,31.80
2022-08-26T15:51:30.159Z,31.90
2022-08-26T15:53:57.868Z,32.00
2022-08-26T15:56:26.617Z,32.00
2022-08-26T15:58:56.170Z,32.00
2022-08-26T16:01:27.466Z,31.90
2022-08-26T16:03:56.062Z,31.80
2022-08-26T16:06:27.564Z,31.70
2022-08-26T16:08:56.314Z,31.50
2022-08-26T16:11:23.982Z,31.40
2022-08-26T16:13:51.049Z,31.30
2022-08-26T16:16:18.688Z,31.10
2022-08-26T16:18:45.807Z,31.00
2022-08-26T16:21:27.938Z,30.90
2022-08-26T16:23:56.424Z,30.80
2022-08-26T16:26:28.063Z,30.70
2022-08-26T16:28:55.083Z,30.50
2022-08-26T16:31:22.396Z,30.40
2022-08-26T16:33:49.775Z,30.30
2022-08-26T16:36:17.429Z,30.20
2022-08-26T16:38:50.231Z,30.00
2022-08-26T16:41:17.854Z,30.00
2022-08-26T16:43:45.316Z,29.80
2022-08-26T16:46:15.106Z,29.70
2022-08-26T16:48:43.653Z,29.50
2022-08-26T16:51:15.457Z,29.40
2022-08-26T16:53:43.396Z,29.10
2022-08-26T16:56:18.949Z,29.00
2022-08-26T16:58:48.311Z,28.90
2022-08-26T17:01:16.504Z,28.70
2022-08-26T17:03:44.284Z,28.60
2022-08-26T17:06:11.938Z,28.50
2022-08-26T17:08:40.968Z,28.30
2022-08-26T17:11:09.079Z,28.20
2022-08-26T17:13:36.980Z,28.00
2022-08-26T17:16:10.527Z,27.80
2022-08-26T17:18:38.335Z,27.70
2022-08-26T17:21:08.629Z,27.60
2022-08-26T17:23:36.384Z,27.40
2022-08-26T17:26:04.462Z,27.10
2022-08-26T17:28:32.163Z,27.00
2022-08-26T17:30:59.519Z,26.90
2022-08-26T17:33:26.990Z,26.70
2022-08-26T17:35:54.948Z,26.60
2022-08-26T17:38:22.330Z,26.60
2022-08-26T17:40:49.895Z,26.60
2022-08-26T17:43:17.412Z,26.50
2022-08-26T17:45:44.767Z,26.50
2022-08-26T17:48:12.272Z,26.50
2022-08-26T17:50:41.465Z,26.50
2022-08-26T17:53:12.693Z,26.50
2022-08-26T17:55:46.850Z,26.50
2022-08-26T17:58:14.940Z,26.50
2022-08-26T18:00:50.383Z,26.50
2022-08-26T18:03:18.548Z,26.50
2022-08-26T18:05:52.982Z,26.50
2022-08-26T18:08:20.659Z,26.50
2022-08-26T18:10:47.920Z,26.40
2022-08-26T18:13:15.400Z,26.30
2022-08-26T18:15:45.493Z,26.30
2022-08-26T18:18:14.074Z,26.30
2022-08-26T18:20:43.062Z,26.30
2022-08-26T18:23:10.868Z,26.20
2022-08-26T18:25:43.204Z,25.70
2022-08-26T18:28:10.595Z,25.20
2022-08-26T18:30:38.050Z,24.70
2022-08-26T18:33:05.077Z,24.30
2022-08-26T18:35:32.096Z,24.10
2022-08-26T18:38:11.412Z,23.80
2022-08-26T18:40:41.039Z,23.60
2022-08-26T18:43:08.486Z,23.30
2022-08-26T18:45:36.114Z,23.10
2022-08-26T18:48:04.282Z,22.80
2022-08-26T18:50:31.452Z,22.60
2022-08-26T18:52:58.477Z,22.50
2022-08-26T18:55:25.476Z,22.50
2022-08-26T18:57:52.525Z,22.30
2022-08-26T19:00:19.660Z,22.20
2022-08-26T19:02:51.747Z,22.10
2022-08-26T19:05:19.456Z,22.00
2022-08-26T19:07:47.942Z,22.00
2022-08-26T19:10:15.124Z,22.00
2022-08-26T19:12:42.639Z,22.10
2022-08-26T19:15:11.523Z,22.10
2022-08-26T19:17:38.520Z,22.20
2022-08-26T19:20:06.238Z,22.20
2022-08-26T19:22:33.335Z,22.20
2022-08-26T19:25:01.396Z,22.10
2022-08-26T19:27:28.391Z,22.20
2022-08-26T19:29:57.754Z,22.10
2022-08-26T19:32:25.381Z,22.00
2022-08-26T19:34:53.081Z,21.90
2022-08-26T19:37:21.182Z,21.90
2022-08-26T19:39:48.487Z,21.90
2022-08-26T19:42:16.616Z,21.80
2022-08-26T19:45:02.265Z,21.60
2022-08-26T19:47:29.311Z,21.60
2022-08-26T19:49:56.824Z,21.40
2022-08-26T19:52:29.820Z,21.30
2022-08-26T19:54:57.860Z,21.20
2022-08-26T19:57:24.965Z,21.10
2022-08-26T19:59:52.158Z,21.10
2022-08-26T20:02:19.704Z,21.00
2022-08-26T20:04:46.966Z,21.00
2022-08-26T20:07:18.561Z,21.00
2022-08-26T20:09:47.361Z,20.90
2022-08-26T20:12:15.584Z,20.90
2022-08-26T20:14:43.786Z,21.10
2022-08-26T20:17:11.679Z,21.00
2022-08-26T20:19:57.263Z,21.00
2022-08-26T20:22:24.531Z,21.10
2022-08-26T20:24:52.280Z,21.20
2022-08-26T20:27:19.355Z,21.30
2022-08-26T20:29:46.321Z,21.40
2022-08-26T20:32:13.418Z,21.50
2022-08-26T20:34:40.433Z,21.50
2022-08-26T20:37:08.597Z,21.60
2022-08-26T20:39:37.006Z,21.70
2022-08-26T20:42:06.949Z,21.80
2022-08-26T20:44:54.879Z,21.80
2022-08-26T20:47:23.309Z,21.80
2022-08-26T20:49:52.518Z,21.90
2022-08-26T20:52:20.321Z,21.90
2022-08-26T20:54:47.329Z,21.90
2022-08-26T20:57:14.783Z,21.90
2022-08-26T20:59:43.135Z,21.80
2022-08-26T21:02:10.134Z,21.80
2022-08-26T21:04:37.233Z,21.70
2022-08-26T21:07:04.588Z,21.70
2022-08-26T21:09:33.051Z,21.60
2022-08-26T21:12:00.087Z,21.50
2022-08-26T21:14:27.196Z,21.40
2022-08-26T21:16:54.441Z,21.30
2022-08-26T21:19:22.094Z,21.20
2022-08-26T21:21:49.601Z,21.30
2022-08-26T21:24:17.148Z,21.30
2022-08-26T21:26:44.785Z,21.20
2022-08-26T21:29:13.590Z,21.20
2022-08-26T21:31:46.030Z,21.20
2022-08-26T21:34:14.810Z,21.20
2022-08-26T21:36:42.053Z,21.20
2022-08-26T21:39:12.049Z,21.00
2022-08-26T21:41:40.793Z,21.00
2022-08-26T21:44:08.979Z,21.00
2022-08-26T21:46:37.385Z,21.00
2022-08-26T21:49:07.573Z,21.00
2022-08-26T21:51:37.768Z,20.90
2022-08-26T21:54:10.794Z,20.90
2022-08-26T21:56:41.060Z,20.90
2022-08-26T21:59:08.979Z,20.80
2022-08-26T22:01:36.241Z,20.80
2022-08-26T22:04:06.448Z,20.80
2022-08-26T22:06:40.763Z,20.80
2022-08-26T22:09:08.127Z,20.80
2022-08-26T22:11:35.211Z,20.80
2022-08-26T22:14:02.285Z,20.70
2022-08-26T22:16:29.306Z,20.70
2022-08-26T22:18:56.525Z,20.60
2022-08-26T22:21:25.516Z,20.60
2022-08-26T22:23:58.014Z,20.50
2022-08-26T22:26:28.928Z,20.60
2022-08-26T22:28:58.630Z,20.50
2022-08-26T22:31:38.116Z,20.50
2022-08-26T22:34:12.444Z,20.50
2022-08-26T22:36:43.872Z,20.50
2022-08-26T22:39:13.866Z,20.50
2022-08-26T22:41:43.130Z,20.60
2022-08-26T22:44:11.315Z,20.60
2022-08-26T22:46:38.750Z,20.60
2022-08-26T22:49:07.887Z,20.70
2022-08-26T22:51:34.913Z,20.70
2022-08-26T22:54:01.964Z,20.80
2022-08-26T22:56:28.956Z,20.80
2022-08-26T22:58:55.977Z,20.80
2022-08-26T23:01:23.120Z,20.80
2022-08-26T23:03:50.250Z,20.80
2022-08-26T23:06:17.336Z,20.80
2022-08-26T23:08:46.443Z,20.80
2022-08-26T23:11:15.074Z,20.80
2022-08-26T23:13:42.683Z,20.80
2022-08-26T23:16:11.798Z,20.80
2022-08-26T23:18:40.627Z,20.80
2022-08-26T23:21:07.876Z,20.80
2022-08-26T23:23:35.464Z,20.80
2022-08-26T23:26:05.908Z,20.90
2022-08-26T23:28:33.924Z,20.90
2022-08-26T23:31:01.020Z,20.90
2022-08-26T23:33:48.132Z,20.90
2022-08-26T23:36:17.859Z,20.90
2022-08-26T23:38:45.442Z,20.90
2022-08-26T23:41:19.895Z,20.90
2022-08-26T23:43:47.720Z,20.90
2022-08-26T23:46:14.750Z,20.90
2022-08-26T23:48:41.855Z,20.90
2022-08-26T23:51:27.932Z,20.90
2022-08-26T23:53:55.090Z,20.90
2022-08-26T23:56:22.085Z,20.80
2022-08-26T23:58:49.056Z,20.80
